createdAt,value
2018-08-11T00:00:23.423Z,14.40
2018-08-11T00:02:52.679Z,14.40
2018-08-11T00:05:21.617Z,14.30
2018-08-11T00:07:50.821Z,14.30
2018-08-11T00:10:20.398Z,14.30
2018-08-11T00:12:49.278Z,14.30
2018-08-11T00:15:18.747Z,14.20
2018-08-11T00:17:47.824Z,14.20
2018-08-11T00:20:26.099Z,14.20
2018-08-11T00:22:55.045Z,14.20
2018-08-11T00:25:24.219Z,14.10
2018-08-11T00:27:53.155Z,14.10
2018-08-11T00:30:21.763Z,14.10
2018-08-11T00:32:51.070Z,14.10
2018-08-11T00:35:20.379Z,14.10
2018-08-11T00:37:50.091Z,14.00
2018-08-11T00:40:19.570Z,14.00
2018-08-11T00:42:49.444Z,14.00
2018-08-11T00:45:18.926Z,14.00
2018-08-11T00:47:48.125Z,14.00
2018-08-11T00:50:23.343Z,13.90
2018-08-11T00:52:52.168Z,13.90
2018-08-11T00:55:21.236Z,13.90
2018-08-11T00:57:50.206Z,13.90
2018-08-11T01:00:19.436Z,13.90
2018-08-11T01:02:48.127Z,13.90
2018-08-11T01:05:18.394Z,13.90
2018-08-11T01:07:48.096Z,13.90
2018-08-11T01:10:17.040Z,13.90
2018-08-11T01:12:46.375Z,13.90
2018-08-11T01:15:17.114Z,13.90
2018-08-11T01:17:47.277Z,13.90
2018-08-11T01:20:16.586Z,13.90
2018-08-11T01:22:46.178Z,13.90
2018-08-11T01:25:15.119Z,13.90
2018-08-11T01:27:43.820Z,13.90
2018-08-11T01:30:16.819Z,13.90
2018-08-11T01:32:45.319Z,13.90
2018-08-11T01:35:13.811Z,13.90
2018-08-11T01:37:43.043Z,13.80
2018-08-11T01:40:12.566Z,13.80
2018-08-11T01:42:42.220Z,13.80
2018-08-11T01:45:11.371Z,13.80
2018-08-11T01:47:40.319Z,13.80
2018-08-11T01:50:09.884Z,13.90
2018-08-11T01:52:38.797Z,13.90
2018-08-11T01:55:07.164Z,13.80
2018-08-11T01:57:36.684Z,13.90
2018-08-11T02:00:06.831Z,14.00
2018-08-11T02:02:35.711Z,14.00
2018-08-11T02:05:04.257Z,14.10
2018-08-11T02:07:32.659Z,14.10
2018-08-11T02:10:01.122Z,14.10
2018-08-11T02:12:29.651Z,14.20
2018-08-11T02:14:58.139Z,14.20
2018-08-11T02:17:26.642Z,14.20
2018-08-11T02:19:55.160Z,14.20
2018-08-11T02:22:23.524Z,14.20
2018-08-11T02:24:52.092Z,14.20
2018-08-11T02:27:20.523Z,14.20
2018-08-11T02:29:48.841Z,14.20
2018-08-11T02:32:17.243Z,14.30
2018-08-11T02:34:45.440Z,14.30
2018-08-11T02:37:13.740Z,14.30
2018-08-11T02:39:42.136Z,14.40
2018-08-11T02:42:10.497Z,14.50
2018-08-11T02:44:39.127Z,14.50
2018-08-11T02:47:07.570Z,14.60
2018-08-11T02:49:36.019Z,14.60
2018-08-11T02:52:04.975Z,14.70
2018-08-11T02:54:33.334Z,14.80
2018-08-11T02:57:01.937Z,14.80
2018-08-11T02:59:30.364Z,14.80
2018-08-11T03:01:58.872Z,14.90
2018-08-11T03:04:27.340Z,14.90
2018-08-11T03:06:55.663Z,14.90
2018-08-11T03:09:23.909Z,14.90
2018-08-11T03:11:52.159Z,15.00
2018-08-11T03:14:20.535Z,15.00
2018-08-11T03:16:48.825Z,15.00
2018-08-11T03:19:17.343Z,15.10
2018-08-11T03:21:45.835Z,15.10
2018-08-11T03:24:14.156Z,15.20
2018-08-11T03:26:42.448Z,15.20
2018-08-11T03:29:10.724Z,15.30
2018-08-11T03:31:39.246Z,15.30
2018-08-11T03:34:07.762Z,15.30
2018-08-11T03:36:36.327Z,15.30
2018-08-11T03:39:07.251Z,15.40
2018-08-11T03:41:35.481Z,15.40
2018-08-11T03:44:03.701Z,15.40
2018-08-11T03:46:31.895Z,15.50
2018-08-11T03:49:00.281Z,15.50
2018-08-11T03:51:28.781Z,15.50
2018-08-11T03:53:57.162Z,15.50
2018-08-11T03:56:25.760Z,15.50
2018-08-11T03:58:54.406Z,15.50
2018-08-11T04:01:22.687Z,15.60
2018-08-11T04:03:51.206Z,15.60
2018-08-11T04:06:19.604Z,15.60
2018-08-11T04:08:48.514Z,15.60
2018-08-11T04:11:16.792Z,15.60
2018-08-11T04:13:45.418Z,15.70
2018-08-11T04:16:13.908Z,15.70
2018-08-11T04:18:42.296Z,15.80
2018-08-11T04:21:10.519Z,15.90
2018-08-11T04:23:39.011Z,15.90
2018-08-11T04:26:08.147Z,16.00
2018-08-11T04:28:36.431Z,16.00
2018-08-11T04:31:04.711Z,16.10
2018-08-11T04:33:33.065Z,16.10
2018-08-11T04:36:01.529Z,16.20
2018-08-11T04:38:29.812Z,16.20
2018-08-11T04:40:58.226Z,16.30
2018-08-11T04:43:26.508Z,16.40
2018-08-11T04:45:55.021Z,16.50
2018-08-11T04:48:23.327Z,16.70
2018-08-11T04:50:51.798Z,16.80
2018-08-11T04:53:20.117Z,16.80
2018-08-11T04:55:48.402Z,16.90
2018-08-11T04:58:16.704Z,16.90
2018-08-11T05:00:45.102Z,16.90
2018-08-11T05:03:13.599Z,16.90
2018-08-11T05:05:42.836Z,16.80
2018-08-11T05:08:11.853Z,16.80
2018-08-11T05:10:40.242Z,16.80
2018-08-11T05:13:08.732Z,16.70
2018-08-11T05:15:37.110Z,16.70
2018-08-11T05:18:05.946Z,16.70
2018-08-11T05:20:34.238Z,16.80
2018-08-11T05:23:02.842Z,16.80
2018-08-11T05:25:31.370Z,16.90
2018-08-11T05:27:59.660Z,17.10
2018-08-11T05:30:27.809Z,17.10
2018-08-11T05:32:56.050Z,17.30
2018-08-11T05:35:24.342Z,17.40
2018-08-11T05:37:52.736Z,17.40
2018-08-11T05:40:21.119Z,17.60
2018-08-11T05:42:49.628Z,17.60
2018-08-11T05:45:17.831Z,17.70
2018-08-11T05:47:46.243Z,17.80
2018-08-11T05:50:14.522Z,17.80
2018-08-11T05:52:42.819Z,17.80
2018-08-11T05:55:11.221Z,17.90
2018-08-11T05:57:39.720Z,17.90
2018-08-11T06:00:09.132Z,17.90
2018-08-11T06:02:37.654Z,17.90
2018-08-11T06:05:06.440Z,18.00
2018-08-11T06:07:34.542Z,19.40
2018-08-11T06:10:03.009Z,21.90
2018-08-11T06:12:31.655Z,24.30
2018-08-11T06:14:59.972Z,26.40
2018-08-11T06:17:28.865Z,28.20
2018-08-11T06:19:57.260Z,29.70
2018-08-11T06:22:25.652Z,30.50
2018-08-11T06:24:53.956Z,30.50
2018-08-11T06:27:22.460Z,31.40
2018-08-11T06:29:50.747Z,32.60
2018-08-11T06:32:19.214Z,33.70
2018-08-11T06:34:47.586Z,34.50
2018-08-11T06:37:15.976Z,35.20
2018-08-11T06:39:44.388Z,36.10
2018-08-11T06:42:12.642Z,36.90
2018-08-11T06:44:40.828Z,36.10
2018-08-11T06:47:09.105Z,34.40
2018-08-11T06:49:37.452Z,32.40
2018-08-11T06:52:06.277Z,30.40
2018-08-11T06:54:34.859Z,28.80
2018-08-11T06:57:03.379Z,27.40
2018-08-11T06:59:31.669Z,26.40
2018-08-11T07:02:00.682Z,25.40
2018-08-11T07:04:29.268Z,24.70
2018-08-11T07:06:57.845Z,24.10
2018-08-11T07:09:26.401Z,23.70
2018-08-11T07:11:54.885Z,23.40
2018-08-11T07:14:23.398Z,23.30
2018-08-11T07:16:52.013Z,23.50
2018-08-11T07:19:20.282Z,24.20
2018-08-11T07:21:48.778Z,25.90
2018-08-11T07:24:17.112Z,27.80
2018-08-11T07:26:45.842Z,28.90
2018-08-11T07:29:14.168Z,29.70
2018-08-11T07:31:42.617Z,31.10
2018-08-11T07:34:10.890Z,32.40
2018-08-11T07:36:39.380Z,33.70
2018-08-11T07:39:08.722Z,34.90
2018-08-11T07:41:37.202Z,35.60
2018-08-11T07:44:05.742Z,36.30
2018-08-11T07:46:34.055Z,36.90
2018-08-11T07:49:02.622Z,36.50
2018-08-11T07:51:30.934Z,35.90
2018-08-11T07:54:00.392Z,35.20
2018-08-11T07:56:28.737Z,35.50
2018-08-11T07:58:57.251Z,34.90
2018-08-11T08:01:25.706Z,33.70
2018-08-11T08:03:54.276Z,32.00
2018-08-11T08:06:22.709Z,30.40
2018-08-11T08:08:51.049Z,29.00
2018-08-11T08:11:19.532Z,27.70
2018-08-11T08:13:47.750Z,26.50
2018-08-11T08:16:16.277Z,25.70
2018-08-11T08:18:44.643Z,24.90
2018-08-11T08:21:13.168Z,24.30
2018-08-11T08:23:41.662Z,23.90
2018-08-11T08:26:10.046Z,23.60
2018-08-11T08:28:38.467Z,23.40
2018-08-11T08:31:06.857Z,23.40
2018-08-11T08:33:35.930Z,24.00
2018-08-11T08:36:04.697Z,24.70
2018-08-11T08:38:33.086Z,25.30
2018-08-11T08:41:02.109Z,25.70
2018-08-11T08:43:30.600Z,25.80
2018-08-11T08:45:58.884Z,25.90
2018-08-11T08:48:27.401Z,26.00
2018-08-11T08:50:55.801Z,25.90
2018-08-11T08:53:24.263Z,25.70
2018-08-11T08:55:52.596Z,25.40
2018-08-11T08:58:20.921Z,25.30
2018-08-11T09:00:49.076Z,25.20
2018-08-11T09:03:17.380Z,25.40
2018-08-11T09:05:45.799Z,25.50
2018-08-11T09:08:14.201Z,25.60
2018-08-11T09:10:42.580Z,25.50
2018-08-11T09:13:11.012Z,25.30
2018-08-11T09:15:39.799Z,25.20
2018-08-11T09:18:08.172Z,25.00
2018-08-11T09:20:36.604Z,24.80
2018-08-11T09:23:05.080Z,24.60
2018-08-11T09:25:33.416Z,24.60
2018-08-11T09:28:02.104Z,24.70
2018-08-11T09:30:30.608Z,24.70
2018-08-11T09:32:58.934Z,24.80
2018-08-11T09:35:27.279Z,24.90
2018-08-11T09:37:55.708Z,25.00
2018-08-11T09:40:24.413Z,25.10
2018-08-11T09:42:53.033Z,25.10
2018-08-11T09:45:21.507Z,24.80
2018-08-11T09:47:49.906Z,24.70
2018-08-11T09:50:19.467Z,24.50
2018-08-11T09:52:47.836Z,24.20
2018-08-11T09:55:16.834Z,24.10
2018-08-11T09:57:45.334Z,23.80
2018-08-11T10:00:15.389Z,23.70
2018-08-11T10:02:43.666Z,23.80
2018-08-11T10:05:12.367Z,23.90
2018-08-11T10:07:40.490Z,24.00
2018-08-11T10:10:08.997Z,24.20
2018-08-11T10:12:37.253Z,24.40
2018-08-11T10:15:05.600Z,24.50
2018-08-11T10:17:33.878Z,24.60
2018-08-11T10:20:02.502Z,24.70
2018-08-11T10:22:30.890Z,24.70
2018-08-11T10:24:59.385Z,24.60
2018-08-11T10:27:27.882Z,24.50
2018-08-11T10:29:56.483Z,24.60
2018-08-11T10:32:24.880Z,24.60
2018-08-11T10:34:53.432Z,24.60
2018-08-11T10:37:21.770Z,24.50
2018-08-11T10:39:50.196Z,24.40
2018-08-11T10:42:19.193Z,24.30
2018-08-11T10:44:47.497Z,24.30
2018-08-11T10:47:15.898Z,24.10
2018-08-11T10:49:44.617Z,24.10
2018-08-11T10:52:12.884Z,24.20
2018-08-11T10:54:41.395Z,24.40
2018-08-11T10:57:09.892Z,24.50
2018-08-11T10:59:38.818Z,24.60
2018-08-11T11:02:07.430Z,24.50
2018-08-11T11:04:35.951Z,24.40
2018-08-11T11:07:04.309Z,24.30
2018-08-11T11:09:32.793Z,24.30
2018-08-11T11:12:01.258Z,24.50
2018-08-11T11:14:29.522Z,24.80
2018-08-11T11:16:57.720Z,24.90
2018-08-11T11:19:25.919Z,24.80
2018-08-11T11:21:54.508Z,24.70
2018-08-11T11:24:22.922Z,24.60
2018-08-11T11:26:51.190Z,24.80
2018-08-11T11:29:19.827Z,25.00
2018-08-11T11:31:48.501Z,25.20
2018-08-11T11:34:17.006Z,25.20
2018-08-11T11:36:45.453Z,25.30
2018-08-11T11:39:13.718Z,25.30
2018-08-11T11:41:42.321Z,25.50
2018-08-11T11:44:10.711Z,25.60
2018-08-11T11:46:39.216Z,25.60
2018-08-11T11:49:08.561Z,25.60
2018-08-11T11:51:36.753Z,25.50
2018-08-11T11:54:05.481Z,25.30
2018-08-11T11:56:34.216Z,25.30
2018-08-11T11:59:02.922Z,25.30
2018-08-11T12:01:34.090Z,25.40
2018-08-11T12:04:02.706Z,25.40
2018-08-11T12:06:31.348Z,25.30
2018-08-11T12:08:59.741Z,25.20
2018-08-11T12:11:28.417Z,25.10
2018-08-11T12:13:56.998Z,25.10
2018-08-11T12:16:25.445Z,25.10
2018-08-11T12:18:56.675Z,24.90
2018-08-11T12:21:28.162Z,24.60
2018-08-11T12:24:00.830Z,24.30
2018-08-11T12:26:35.086Z,24.20
2018-08-11T12:29:06.819Z,24.10
2018-08-11T12:31:35.589Z,24.30
2018-08-11T12:34:04.313Z,24.50
2018-08-11T12:36:34.076Z,24.60
2018-08-11T12:39:03.675Z,24.60
2018-08-11T12:41:32.159Z,24.70
2018-08-11T12:44:00.762Z,24.90
2018-08-11T12:46:29.178Z,24.90
2018-08-11T12:48:57.480Z,25.00
2018-08-11T12:51:25.989Z,25.00
2018-08-11T12:53:54.361Z,24.90
2018-08-11T12:56:22.539Z,24.80
2018-08-11T12:58:51.099Z,24.60
2018-08-11T13:01:20.276Z,24.60
2018-08-11T13:03:48.672Z,24.40
2018-08-11T13:06:17.200Z,24.20
2018-08-11T13:08:45.677Z,24.30
2018-08-11T13:11:14.311Z,24.30
2018-08-11T13:13:42.637Z,24.20
2018-08-11T13:16:11.026Z,24.20
2018-08-11T13:18:39.504Z,24.30
2018-08-11T13:21:07.970Z,24.50
2018-08-11T13:23:36.560Z,24.70
2018-08-11T13:26:04.986Z,24.90
2018-08-11T13:28:33.405Z,25.00
2018-08-11T13:31:01.769Z,25.00
2018-08-11T13:33:30.274Z,25.00
2018-08-11T13:35:58.781Z,25.00
2018-08-11T13:38:27.199Z,24.90
2018-08-11T13:40:55.690Z,24.80
2018-08-11T13:45:52.066Z,24.50
2018-08-11T13:48:20.462Z,24.40
2018-08-11T13:50:49.482Z,24.30
2018-08-11T13:53:18.431Z,24.10
2018-08-11T13:55:47.435Z,24.10
2018-08-11T13:58:15.727Z,24.00
2018-08-11T14:00:44.319Z,24.00
2018-08-11T14:03:12.476Z,24.10
2018-08-11T14:05:40.790Z,24.30
2018-08-11T14:08:09.212Z,24.40
2018-08-11T14:10:37.838Z,24.40
2018-08-11T14:13:06.515Z,24.50
2018-08-11T14:15:36.037Z,24.70
2018-08-11T14:18:07.965Z,24.80
2018-08-11T14:20:36.407Z,24.90
2018-08-11T14:23:05.153Z,25.00
2018-08-11T14:25:33.565Z,24.90
2018-08-11T14:28:02.230Z,24.70
2018-08-11T14:30:30.320Z,24.50
2018-08-11T14:32:58.502Z,24.30
2018-08-11T14:35:26.909Z,24.30
2018-08-11T14:37:55.194Z,24.30
2018-08-11T14:40:23.707Z,24.30
2018-08-11T14:42:52.040Z,24.30
2018-08-11T14:45:21.537Z,24.30
2018-08-11T14:47:49.963Z,24.10
2018-08-11T14:50:19.063Z,23.90
2018-08-11T14:52:47.554Z,23.60
2018-08-11T14:55:15.962Z,23.50
2018-08-11T14:57:44.323Z,23.40
2018-08-11T15:00:13.342Z,23.30
2018-08-11T15:02:41.759Z,23.30
2018-08-11T15:05:10.265Z,23.40
2018-08-11T15:07:38.681Z,23.50
2018-08-11T15:10:07.882Z,23.80
2018-08-11T15:12:36.261Z,23.90
2018-08-11T15:15:05.682Z,24.00
2018-08-11T15:17:34.226Z,24.00
2018-08-11T15:20:02.866Z,23.90
2018-08-11T15:22:31.131Z,23.80
2018-08-11T15:24:59.505Z,23.70
2018-08-11T15:27:27.925Z,23.70
2018-08-11T15:29:56.415Z,23.80
2018-08-11T15:32:24.930Z,23.80
2018-08-11T15:34:53.308Z,23.70
2018-08-11T15:37:21.516Z,23.50
2018-08-11T15:39:49.819Z,23.30
2018-08-11T15:42:18.233Z,23.20
2018-08-11T15:44:47.191Z,23.30
2018-08-11T15:47:15.719Z,23.40
2018-08-11T15:49:44.018Z,23.70
2018-08-11T15:52:12.440Z,23.80
2018-08-11T15:54:40.805Z,23.90
2018-08-11T15:57:09.212Z,23.90
2018-08-11T15:59:38.215Z,23.90
2018-08-11T16:02:07.591Z,23.90
2018-08-11T16:04:35.969Z,24.00
2018-08-11T16:07:04.673Z,24.00
2018-08-11T16:09:32.960Z,24.00
2018-08-11T16:12:01.267Z,24.00
2018-08-11T16:14:29.566Z,23.90
2018-08-11T16:16:58.049Z,23.90
2018-08-11T16:19:26.431Z,23.80
2018-08-11T16:21:54.730Z,23.70
2018-08-11T16:24:24.035Z,23.60
2018-08-11T16:26:52.683Z,23.50
2018-08-11T16:29:21.094Z,23.50
2018-08-11T16:31:49.920Z,23.40
2018-08-11T16:34:18.725Z,23.30
2018-08-11T16:36:47.424Z,23.00
2018-08-11T16:39:15.851Z,22.70
2018-08-11T16:41:44.592Z,22.50
2018-08-11T16:44:13.398Z,22.40
2018-08-11T16:46:43.099Z,22.30
2018-08-11T16:49:12.345Z,22.40
2018-08-11T16:51:40.983Z,22.40
2018-08-11T16:54:09.589Z,22.50
2018-08-11T16:56:38.102Z,22.60
2018-08-11T16:59:07.366Z,22.60
2018-08-11T17:01:39.022Z,22.60
2018-08-11T17:04:09.456Z,22.60
2018-08-11T17:06:39.119Z,22.60
2018-08-11T17:09:11.333Z,22.50
2018-08-11T17:11:40.588Z,22.50
2018-08-11T17:14:11.467Z,22.50
2018-08-11T17:16:39.902Z,22.40
2018-08-11T17:19:09.519Z,22.40
2018-08-11T17:21:39.750Z,22.30
2018-08-11T17:24:09.170Z,22.20
2018-08-11T17:26:38.465Z,22.00
2018-08-11T17:29:07.094Z,21.90
2018-08-11T17:31:35.751Z,21.80
2018-08-11T17:34:05.195Z,21.70
2018-08-11T17:36:33.647Z,21.70
2018-08-11T17:39:02.051Z,21.60
2018-08-11T17:41:32.516Z,21.50
2018-08-11T17:44:00.808Z,21.40
2018-08-11T17:46:29.400Z,21.30
2018-08-11T17:48:57.816Z,21.20
2018-08-11T17:51:26.098Z,21.10
2018-08-11T17:53:54.710Z,21.00
2018-08-11T17:56:23.865Z,21.00
2018-08-11T17:58:52.501Z,21.00
2018-08-11T18:01:22.048Z,20.90
2018-08-11T18:03:50.657Z,20.80
2018-08-11T18:06:21.118Z,20.70
2018-08-11T18:08:51.556Z,20.70
2018-08-11T18:11:20.466Z,20.60
2018-08-11T18:13:48.903Z,20.50
2018-08-11T18:16:18.158Z,20.40
2018-08-11T18:18:46.562Z,20.20
2018-08-11T18:21:14.763Z,20.10
2018-08-11T18:23:43.148Z,20.00
2018-08-11T18:26:17.321Z,19.90
2018-08-11T18:28:45.909Z,19.80
2018-08-11T18:31:14.400Z,19.70
2018-08-11T18:33:42.890Z,19.60
2018-08-11T18:36:11.406Z,19.50
2018-08-11T18:38:39.551Z,19.40
2018-08-11T18:41:07.903Z,19.30
2018-08-11T18:43:36.283Z,19.30
2018-08-11T18:46:04.615Z,19.20
2018-08-11T18:48:34.027Z,19.20
2018-08-11T18:51:02.930Z,19.20
2018-08-11T18:53:32.021Z,19.10
2018-08-11T18:56:01.214Z,19.10
2018-08-11T18:58:29.863Z,19.10
2018-08-11T19:01:03.276Z,19.10
2018-08-11T19:03:31.811Z,19.00
2018-08-11T19:06:00.407Z,19.00
2018-08-11T19:08:29.458Z,18.90
2018-08-11T19:10:58.568Z,18.90
2018-08-11T19:13:27.422Z,18.90
2018-08-11T19:15:56.372Z,18.90
2018-08-11T19:18:24.923Z,18.80
2018-08-11T19:20:53.440Z,18.80
2018-08-11T19:23:21.881Z,18.70
2018-08-11T19:25:50.499Z,18.60
2018-08-11T19:28:19.049Z,18.50
2018-08-11T19:30:47.553Z,18.40
2018-08-11T19:33:15.848Z,18.30
2018-08-11T19:35:45.282Z,18.10
2018-08-11T19:38:13.874Z,18.10
2018-08-11T19:40:42.394Z,17.90
2018-08-11T19:43:11.054Z,17.80
2018-08-11T19:45:39.953Z,17.70
2018-08-11T19:48:08.414Z,17.60
2018-08-11T19:50:37.326Z,17.50
2018-08-11T19:53:05.971Z,17.30
2018-08-11T19:55:34.611Z,17.20
2018-08-11T19:58:03.542Z,17.10
2018-08-11T20:00:31.946Z,16.90
2018-08-11T20:03:00.445Z,16.90
2018-08-11T20:05:28.601Z,16.80
2018-08-11T20:07:57.331Z,16.70
2018-08-11T20:10:25.743Z,16.60
2018-08-11T20:12:54.739Z,16.50
2018-08-11T20:15:23.351Z,16.40
2018-08-11T20:17:51.850Z,16.40
2018-08-11T20:20:20.387Z,16.30
2018-08-11T20:22:48.968Z,16.20
2018-08-11T20:25:17.616Z,16.20
2018-08-11T20:27:46.063Z,16.20
2018-08-11T20:30:14.735Z,16.10
2018-08-11T20:32:43.169Z,16.00
2018-08-11T20:35:11.679Z,16.00
2018-08-11T20:37:40.092Z,16.00
2018-08-11T20:40:08.992Z,15.90
2018-08-11T20:42:37.362Z,15.90
2018-08-11T20:45:06.263Z,15.80
2018-08-11T20:47:34.728Z,15.80
2018-08-11T20:50:03.217Z,15.80
2018-08-11T20:52:32.005Z,15.70
2018-08-11T20:55:00.625Z,15.60
2018-08-11T20:57:43.702Z,15.60
2018-08-11T21:00:13.078Z,15.50
2018-08-11T21:02:41.566Z,15.40
2018-08-11T21:05:12.319Z,15.40
2018-08-11T21:07:40.889Z,15.30
2018-08-11T21:10:13.135Z,15.20
2018-08-11T21:12:41.997Z,15.20
2018-08-11T21:15:11.059Z,15.10
2018-08-11T21:17:39.533Z,15.00
2018-08-11T21:20:10.203Z,15.00
2018-08-11T21:22:38.750Z,14.90
2018-08-11T21:25:08.114Z,14.80
2018-08-11T21:27:36.598Z,14.80
2018-08-11T21:30:06.819Z,14.70
2018-08-11T21:32:35.525Z,14.70
2018-08-11T21:35:04.051Z,14.60
2018-08-11T21:37:32.555Z,14.60
2018-08-11T21:40:00.940Z,14.60
2018-08-11T21:42:29.343Z,14.50
2018-08-11T21:44:57.740Z,14.40
2018-08-11T21:47:26.232Z,14.40
2018-08-11T21:49:54.613Z,14.30
2018-08-11T21:52:23.272Z,14.20
2018-08-11T21:54:51.831Z,14.20
2018-08-11T21:57:20.258Z,14.10
2018-08-11T21:59:48.754Z,14.10
2018-08-11T22:02:17.942Z,14.10
2018-08-11T22:04:46.482Z,14.00
2018-08-11T22:07:15.011Z,14.00
2018-08-11T22:09:43.439Z,13.90
2018-08-11T22:12:11.785Z,13.90
2018-08-11T22:14:40.266Z,13.90
2018-08-11T22:17:08.885Z,13.80
2018-08-11T22:19:37.491Z,13.80
2018-08-11T22:22:05.853Z,13.70
2018-08-11T22:24:34.523Z,13.60
2018-08-11T22:27:02.950Z,13.60
2018-08-11T22:29:31.598Z,13.50
2018-08-11T22:31:59.980Z,13.50
2018-08-11T22:34:28.510Z,13.40
2018-08-11T22:36:56.989Z,13.40
2018-08-11T22:39:25.511Z,13.40
2018-08-11T22:41:53.778Z,13.30
2018-08-11T22:44:22.299Z,13.30
2018-08-11T22:46:50.666Z,13.20
2018-08-11T22:49:19.094Z,13.20
2018-08-11T22:51:47.446Z,13.20
2018-08-11T22:54:15.911Z,13.10
2018-08-11T22:56:44.819Z,13.10
2018-08-11T22:59:13.298Z,13.10
2018-08-11T23:01:41.721Z,13.00
2018-08-11T23:04:09.999Z,13.00
2018-08-11T23:06:38.601Z,13.00
2018-08-11T23:09:07.116Z,12.90
2018-08-11T23:11:35.599Z,12.90
2018-08-11T23:14:04.045Z,12.80
2018-08-11T23:16:32.748Z,12.80
2018-08-11T23:19:00.929Z,12.80
2018-08-11T23:21:29.319Z,12.70
2018-08-11T23:23:57.880Z,12.70
2018-08-11T23:26:26.417Z,12.60
2018-08-11T23:28:55.136Z,12.60
2018-08-11T23:31:23.540Z,12.50
2018-08-11T23:33:52.056Z,12.50
2018-08-11T23:36:20.644Z,12.50
2018-08-11T23:38:48.964Z,12.50
2018-08-11T23:41:17.328Z,12.40
2018-08-11T23:43:45.759Z,12.40
2018-08-11T23:46:14.128Z,12.40
2018-08-11T23:48:42.732Z,12.30
2018-08-11T23:51:11.281Z,12.30
2018-08-11T23:53:39.520Z,12.30
2018-08-11T23:56:07.614Z,12.30
2018-08-11T23:58:36.123Z,12.30
